sensor_id;sensor_type;location;lat;lon;timestamp;P1;durP1;ratioP1;P2;durP2;ratioP2
19842;SDS011;10082;51.038;6.992;2023-02-27T00:02:02;2.80;;;2.20;;
19842;SDS011;10082;51.038;6.992;2023-02-27T00:04:29;2.60;;;2.40;;
19842;SDS011;10082;51.038;6.992;2023-02-27T00:06:56;2.50;;;1.80;;
19842;SDS011;10082;51.038;6.992;2023-02-27T00:09:24;2.10;;;1.80;;
19842;SDS011;10082;51.038;6.992;2023-02-27T00:11:51;1.97;;;1.77;;
19842;SDS011;10082;51.038;6.992;2023-02-27T00:14:21;3.43;;;2.00;;
19842;SDS011;10082;51.038;6.992;2023-02-27T00:16:48;2.83;;;2.00;;
19842;SDS011;10082;51.038;6.992;2023-02-27T00:19:15;2.10;;;1.90;;
19842;SDS011;10082;51.038;6.992;2023-02-27T00:21:42;1.90;;;1.70;;
19842;SDS011;10082;51.038;6.992;2023-02-27T00:24:10;3.47;;;1.70;;
19842;SDS011;10082;51.038;6.992;2023-02-27T00:26:40;2.53;;;2.03;;
19842;SDS011;10082;51.038;6.992;2023-02-27T00:29:07;2.83;;;1.80;;
19842;SDS011;10082;51.038;6.992;2023-02-27T00:31:36;2.97;;;1.80;;
19842;SDS011;10082;51.038;6.992;2023-02-27T00:34:03;2.87;;;1.60;;
19842;SDS011;10082;51.038;6.992;2023-02-27T00:36:32;2.90;;;2.13;;
19842;SDS011;10082;51.038;6.992;2023-02-27T00:39:00;3.37;;;1.77;;
19842;SDS011;10082;51.038;6.992;2023-02-27T00:41:28;2.80;;;2.50;;
19842;SDS011;10082;51.038;6.992;2023-02-27T00:43:55;3.73;;;1.60;;
19842;SDS011;10082;51.038;6.992;2023-02-27T00:46:22;2.43;;;2.00;;
19842;SDS011;10082;51.038;6.992;2023-02-27T00:48:51;2.20;;;2.00;;
19842;SDS011;10082;51.038;6.992;2023-02-27T00:51:19;2.93;;;2.00;;
19842;SDS011;10082;51.038;6.992;2023-02-27T00:53:47;3.73;;;1.70;;
19842;SDS011;10082;51.038;6.992;2023-02-27T00:56:14;2.87;;;1.67;;
19842;SDS011;10082;51.038;6.992;2023-02-27T00:58:41;2.87;;;1.70;;
19842;SDS011;10082;51.038;6.992;2023-02-27T01:01:08;1.93;;;1.73;;
19842;SDS011;10082;51.038;6.992;2023-02-27T01:03:35;3.23;;;1.80;;
19842;SDS011;10082;51.038;6.992;2023-02-27T01:06:05;2.47;;;1.83;;
19842;SDS011;10082;51.038;6.992;2023-02-27T01:08:32;2.80;;;1.73;;
19842;SDS011;10082;51.038;6.992;2023-02-27T01:11:03;5.27;;;2.00;;
19842;SDS011;10082;51.038;6.992;2023-02-27T01:13:30;2.27;;;1.90;;
19842;SDS011;10082;51.038;6.992;2023-02-27T01:15:57;3.00;;;2.20;;
19842;SDS011;10082;51.038;6.992;2023-02-27T01:18:27;2.63;;;1.90;;
19842;SDS011;10082;51.038;6.992;2023-02-27T01:20:57;2.20;;;2.00;;
19842;SDS011;10082;51.038;6.992;2023-02-27T01:23:26;2.30;;;1.87;;
19842;SDS011;10082;51.038;6.992;2023-02-27T01:25:53;3.17;;;2.50;;
19842;SDS011;10082;51.038;6.992;2023-02-27T01:28:20;3.17;;;2.10;;
19842;SDS011;10082;51.038;6.992;2023-02-27T01:30:48;3.10;;;2.20;;
19842;SDS011;10082;51.038;6.992;2023-02-27T01:33:15;3.27;;;2.10;;
19842;SDS011;10082;51.038;6.992;2023-02-27T01:35:42;3.87;;;2.00;;
19842;SDS011;10082;51.038;6.992;2023-02-27T01:38:10;3.50;;;2.03;;
19842;SDS011;10082;51.038;6.992;2023-02-27T01:40:41;5.00;;;2.13;;
19842;SDS011;10082;51.038;6.992;2023-02-27T01:43:08;3.27;;;1.80;;
19842;SDS011;10082;51.038;6.992;2023-02-27T01:45:40;3.07;;;1.80;;
19842;SDS011;10082;51.038;6.992;2023-02-27T01:48:11;2.37;;;2.00;;
19842;SDS011;10082;51.038;6.992;2023-02-27T01:50:45;3.30;;;2.20;;
19842;SDS011;10082;51.038;6.992;2023-02-27T01:53:15;3.17;;;1.83;;
19842;SDS011;10082;51.038;6.992;2023-02-27T01:55:46;2.47;;;1.83;;
19842;SDS011;10082;51.038;6.992;2023-02-27T01:58:14;3.60;;;2.20;;
19842;SDS011;10082;51.038;6.992;2023-02-27T02:00:43;3.37;;;2.13;;
19842;SDS011;10082;51.038;6.992;2023-02-27T02:03:12;2.00;;;1.90;;
19842;SDS011;10082;51.038;6.992;2023-02-27T02:05:45;2.40;;;1.97;;
19842;SDS011;10082;51.038;6.992;2023-02-27T02:08:13;3.30;;;2.40;;
19842;SDS011;10082;51.038;6.992;2023-02-27T02:10:42;2.43;;;2.10;;
19842;SDS011;10082;51.038;6.992;2023-02-27T02:13:12;3.33;;;2.20;;
19842;SDS011;10082;51.038;6.992;2023-02-27T02:15:40;2.73;;;2.07;;
19842;SDS011;10082;51.038;6.992;2023-02-27T02:18:16;4.07;;;2.17;;
19842;SDS011;10082;51.038;6.992;2023-02-27T02:27:02;2.50;;;2.30;;
19842;SDS011;10082;51.038;6.992;2023-02-27T02:29:46;3.00;;;2.27;;
19842;SDS011;10082;51.038;6.992;2023-02-27T02:35:48;2.40;;;2.20;;
19842;SDS011;10082;51.038;6.992;2023-02-27T02:38:48;2.70;;;2.07;;
19842;SDS011;10082;51.038;6.992;2023-02-27T02:41:27;4.87;;;3.17;;
19842;SDS011;10082;51.038;6.992;2023-02-27T02:44:04;6.67;;;3.83;;
19842;SDS011;10082;51.038;6.992;2023-02-27T02:46:45;3.93;;;2.50;;
19842;SDS011;10082;51.038;6.992;2023-02-27T02:49:19;5.20;;;3.03;;
19842;SDS011;10082;51.038;6.992;2023-02-27T02:51:54;2.97;;;2.40;;
19842;SDS011;10082;51.038;6.992;2023-02-27T02:54:32;2.67;;;2.20;;
19842;SDS011;10082;51.038;6.992;2023-02-27T02:57:07;2.27;;;2.07;;
19842;SDS011;10082;51.038;6.992;2023-02-27T02:59:39;2.83;;;2.40;;
19842;SDS011;10082;51.038;6.992;2023-02-27T03:02:10;2.60;;;2.10;;
19842;SDS011;10082;51.038;6.992;2023-02-27T03:04:41;4.53;;;2.47;;
19842;SDS011;10082;51.038;6.992;2023-02-27T03:07:14;2.57;;;2.30;;
19842;SDS011;10082;51.038;6.992;2023-02-27T03:09:47;3.57;;;2.30;;
19842;SDS011;10082;51.038;6.992;2023-02-27T03:12:20;3.60;;;2.50;;
19842;SDS011;10082;51.038;6.992;2023-02-27T03:14:50;2.97;;;2.20;;
19842;SDS011;10082;51.038;6.992;2023-02-27T03:17:29;2.97;;;2.33;;
19842;SDS011;10082;51.038;6.992;2023-02-27T03:20:04;2.60;;;2.30;;
19842;SDS011;10082;51.038;6.992;2023-02-27T03:22:34;3.77;;;2.60;;
19842;SDS011;10082;51.038;6.992;2023-02-27T03:25:06;4.13;;;2.67;;
19842;SDS011;10082;51.038;6.992;2023-02-27T03:27:41;3.10;;;2.57;;
19842;SDS011;10082;51.038;6.992;2023-02-27T03:30:12;4.77;;;2.63;;
19842;SDS011;10082;51.038;6.992;2023-02-27T03:32:46;4.13;;;3.30;;
19842;SDS011;10082;51.038;6.992;2023-02-27T03:35:22;3.13;;;2.70;;
19842;SDS011;10082;51.038;6.992;2023-02-27T03:41:25;3.23;;;2.60;;
19842;SDS011;10082;51.038;6.992;2023-02-27T03:44:13;2.70;;;2.50;;
19842;SDS011;10082;51.038;6.992;2023-02-27T03:46:50;3.43;;;2.63;;
19842;SDS011;10082;51.038;6.992;2023-02-27T03:49:18;3.67;;;2.77;;
19842;SDS011;10082;51.038;6.992;2023-02-27T03:51:47;4.93;;;3.10;;
19842;SDS011;10082;51.038;6.992;2023-02-27T03:54:15;3.47;;;2.80;;
19842;SDS011;10082;51.038;6.992;2023-02-27T03:56:50;3.87;;;2.60;;
19842;SDS011;10082;51.038;6.992;2023-02-27T04:02:08;2.60;;;2.40;;
19842;SDS011;10082;51.038;6.992;2023-02-27T04:04:36;3.47;;;2.57;;
19842;SDS011;10082;51.038;6.992;2023-02-27T04:07:10;2.87;;;2.33;;
19842;SDS011;10082;51.038;6.992;2023-02-27T04:15:46;3.53;;;2.70;;
19842;SDS011;10082;51.038;6.992;2023-02-27T04:18:36;3.87;;;2.60;;
19842;SDS011;10082;51.038;6.992;2023-02-27T04:21:17;4.00;;;2.90;;
19842;SDS011;10082;51.038;6.992;2023-02-27T04:23:54;3.37;;;2.67;;
19842;SDS011;10082;51.038;6.992;2023-02-27T04:26:29;3.43;;;2.53;;
19842;SDS011;10082;51.038;6.992;2023-02-27T04:29:02;3.57;;;3.10;;
19842;SDS011;10082;51.038;6.992;2023-02-27T04:31:36;3.40;;;2.80;;
19842;SDS011;10082;51.038;6.992;2023-02-27T04:34:12;3.40;;;3.10;;
19842;SDS011;10082;51.038;6.992;2023-02-27T04:36:46;3.43;;;2.60;;
19842;SDS011;10082;51.038;6.992;2023-02-27T04:39:21;3.87;;;2.97;;
19842;SDS011;10082;51.038;6.992;2023-02-27T04:41:53;3.53;;;2.67;;
19842;SDS011;10082;51.038;6.992;2023-02-27T04:44:24;4.27;;;2.83;;
19842;SDS011;10082;51.038;6.992;2023-02-27T04:46:53;4.33;;;3.00;;
19842;SDS011;10082;51.038;6.992;2023-02-27T04:49:23;4.10;;;3.20;;
19842;SDS011;10082;51.038;6.992;2023-02-27T04:54:32;2.83;;;2.53;;
19842;SDS011;10082;51.038;6.992;2023-02-27T04:57:06;4.30;;;3.37;;
19842;SDS011;10082;51.038;6.992;2023-02-27T04:59:39;3.63;;;3.00;;
19842;SDS011;10082;51.038;6.992;2023-02-27T05:02:11;4.03;;;3.10;;
19842;SDS011;10082;51.038;6.992;2023-02-27T05:04:42;4.03;;;3.10;;
19842;SDS011;10082;51.038;6.992;2023-02-27T05:07:12;4.17;;;2.90;;
19842;SDS011;10082;51.038;6.992;2023-02-27T05:09:44;3.43;;;3.13;;
19842;SDS011;10082;51.038;6.992;2023-02-27T05:12:15;4.57;;;3.50;;
19842;SDS011;10082;51.038;6.992;2023-02-27T05:14:48;4.30;;;3.20;;
19842;SDS011;10082;51.038;6.992;2023-02-27T05:17:25;3.53;;;3.10;;
19842;SDS011;10082;51.038;6.992;2023-02-27T05:19:56;6.43;;;3.60;;
19842;SDS011;10082;51.038;6.992;2023-02-27T05:22:27;3.60;;;3.10;;
19842;SDS011;10082;51.038;6.992;2023-02-27T05:25:11;4.30;;;2.90;;
19842;SDS011;10082;51.038;6.992;2023-02-27T05:27:44;3.63;;;3.30;;
19842;SDS011;10082;51.038;6.992;2023-02-27T05:30:18;5.47;;;3.07;;
19842;SDS011;10082;51.038;6.992;2023-02-27T05:32:50;5.43;;;2.90;;
19842;SDS011;10082;51.038;6.992;2023-02-27T05:35:22;3.73;;;3.27;;
19842;SDS011;10082;51.038;6.992;2023-02-27T05:37:54;3.73;;;2.90;;
19842;SDS011;10082;51.038;6.992;2023-02-27T05:40:30;4.57;;;3.27;;
19842;SDS011;10082;51.038;6.992;2023-02-27T05:43:01;4.60;;;2.93;;
19842;SDS011;10082;51.038;6.992;2023-02-27T05:45:33;4.87;;;3.20;;
19842;SDS011;10082;51.038;6.992;2023-02-27T05:48:06;3.90;;;3.50;;
19842;SDS011;10082;51.038;6.992;2023-02-27T05:50:37;6.63;;;5.00;;
19842;SDS011;10082;51.038;6.992;2023-02-27T05:53:07;6.50;;;5.00;;
19842;SDS011;10082;51.038;6.992;2023-02-27T05:55:40;5.03;;;4.33;;
19842;SDS011;10082;51.038;6.992;2023-02-27T05:58:11;5.17;;;4.30;;
19842;SDS011;10082;51.038;6.992;2023-02-27T06:00:44;7.50;;;4.43;;
19842;SDS011;10082;51.038;6.992;2023-02-27T06:03:15;5.20;;;4.57;;
19842;SDS011;10082;51.038;6.992;2023-02-27T06:05:42;7.17;;;4.90;;
19842;SDS011;10082;51.038;6.992;2023-02-27T06:08:11;4.87;;;4.37;;
19842;SDS011;10082;51.038;6.992;2023-02-27T06:10:38;5.67;;;4.53;;
19842;SDS011;10082;51.038;6.992;2023-02-27T06:13:05;5.43;;;4.90;;
19842;SDS011;10082;51.038;6.992;2023-02-27T06:15:32;6.77;;;5.17;;
19842;SDS011;10082;51.038;6.992;2023-02-27T06:18:00;5.23;;;4.60;;
19842;SDS011;10082;51.038;6.992;2023-02-27T06:20:27;5.63;;;5.00;;
19842;SDS011;10082;51.038;6.992;2023-02-27T06:22:54;5.83;;;5.00;;
19842;SDS011;10082;51.038;6.992;2023-02-27T06:25:22;6.30;;;5.70;;
19842;SDS011;10082;51.038;6.992;2023-02-27T06:27:49;6.67;;;5.80;;
19842;SDS011;10082;51.038;6.992;2023-02-27T06:30:16;9.33;;;8.40;;
19842;SDS011;10082;51.038;6.992;2023-02-27T06:32:44;10.73;;;7.87;;
19842;SDS011;10082;51.038;6.992;2023-02-27T06:35:12;7.10;;;6.40;;
19842;SDS011;10082;51.038;6.992;2023-02-27T06:37:40;6.37;;;5.77;;
19842;SDS011;10082;51.038;6.992;2023-02-27T06:40:08;5.90;;;5.23;;
19842;SDS011;10082;51.038;6.992;2023-02-27T06:42:36;7.07;;;5.70;;
19842;SDS011;10082;51.038;6.992;2023-02-27T06:45:04;6.80;;;5.23;;
19842;SDS011;10082;51.038;6.992;2023-02-27T06:47:32;9.43;;;5.10;;
19842;SDS011;10082;51.038;6.992;2023-02-27T06:49:59;7.50;;;5.17;;
19842;SDS011;10082;51.038;6.992;2023-02-27T06:52:29;7.43;;;5.30;;
19842;SDS011;10082;51.038;6.992;2023-02-27T06:54:56;6.43;;;4.53;;
19842;SDS011;10082;51.038;6.992;2023-02-27T06:57:23;6.93;;;5.23;;
19842;SDS011;10082;51.038;6.992;2023-02-27T06:59:50;5.97;;;4.93;;
19842;SDS011;10082;51.038;6.992;2023-02-27T07:02:17;5.33;;;4.53;;
19842;SDS011;10082;51.038;6.992;2023-02-27T07:04:47;6.33;;;4.30;;
19842;SDS011;10082;51.038;6.992;2023-02-27T07:07:14;4.93;;;4.40;;
19842;SDS011;10082;51.038;6.992;2023-02-27T07:09:43;4.53;;;4.13;;
19842;SDS011;10082;51.038;6.992;2023-02-27T07:12:10;4.70;;;4.10;;
19842;SDS011;10082;51.038;6.992;2023-02-27T07:14:37;6.63;;;4.47;;
19842;SDS011;10082;51.038;6.992;2023-02-27T07:17:04;4.30;;;3.90;;
19842;SDS011;10082;51.038;6.992;2023-02-27T07:19:32;4.57;;;3.90;;
19842;SDS011;10082;51.038;6.992;2023-02-27T07:22:00;5.13;;;4.10;;
19842;SDS011;10082;51.038;6.992;2023-02-27T07:24:27;3.97;;;3.57;;
19842;SDS011;10082;51.038;6.992;2023-02-27T07:26:56;4.13;;;3.53;;
19842;SDS011;10082;51.038;6.992;2023-02-27T07:29:23;3.87;;;3.33;;
19842;SDS011;10082;51.038;6.992;2023-02-27T07:31:50;3.83;;;3.53;;
19842;SDS011;10082;51.038;6.992;2023-02-27T07:34:17;4.23;;;3.23;;
19842;SDS011;10082;51.038;6.992;2023-02-27T07:36:44;5.60;;;3.93;;
19842;SDS011;10082;51.038;6.992;2023-02-27T07:39:11;5.10;;;3.53;;
19842;SDS011;10082;51.038;6.992;2023-02-27T07:41:39;6.13;;;3.20;;
19842;SDS011;10082;51.038;6.992;2023-02-27T07:44:16;4.07;;;3.43;;
19842;SDS011;10082;51.038;6.992;2023-02-27T07:46:43;4.13;;;3.40;;
19842;SDS011;10082;51.038;6.992;2023-02-27T07:49:11;4.63;;;3.00;;
19842;SDS011;10082;51.038;6.992;2023-02-27T07:51:38;5.77;;;3.83;;
19842;SDS011;10082;51.038;6.992;2023-02-27T07:54:05;6.77;;;3.97;;
19842;SDS011;10082;51.038;6.992;2023-02-27T07:56:32;7.13;;;3.47;;
19842;SDS011;10082;51.038;6.992;2023-02-27T07:59:00;4.10;;;3.27;;
19842;SDS011;10082;51.038;6.992;2023-02-27T08:01:29;4.53;;;3.07;;
19842;SDS011;10082;51.038;6.992;2023-02-27T08:03:55;3.73;;;3.27;;
19842;SDS011;10082;51.038;6.992;2023-02-27T08:06:23;3.50;;;3.07;;
19842;SDS011;10082;51.038;6.992;2023-02-27T08:08:50;4.40;;;3.73;;
19842;SDS011;10082;51.038;6.992;2023-02-27T08:11:17;4.67;;;3.53;;
19842;SDS011;10082;51.038;6.992;2023-02-27T10:29:31;1.38;;;1.10;;
19842;SDS011;10082;51.038;6.992;2023-02-27T10:32:01;1.70;;;1.10;;
19842;SDS011;10082;51.038;6.992;2023-02-27T10:34:33;1.20;;;1.10;;
19842;SDS011;10082;51.038;6.992;2023-02-27T10:37:04;2.25;;;1.40;;
19842;SDS011;10082;51.038;6.992;2023-02-27T10:39:35;1.73;;;1.40;;
19842;SDS011;10082;51.038;6.992;2023-02-27T10:42:09;3.20;;;1.50;;
19842;SDS011;10082;51.038;6.992;2023-02-27T10:44:39;1.73;;;1.00;;
19842;SDS011;10082;51.038;6.992;2023-02-27T10:47:08;1.60;;;1.50;;
19842;SDS011;10082;51.038;6.992;2023-02-27T10:49:41;2.70;;;1.42;;
19842;SDS011;10082;51.038;6.992;2023-02-27T10:52:09;1.65;;;1.52;;
19842;SDS011;10082;51.038;6.992;2023-02-27T10:54:37;1.40;;;1.15;;
19842;SDS011;10082;51.038;6.992;2023-02-27T10:57:06;2.35;;;1.50;;
19842;SDS011;10082;51.038;6.992;2023-02-27T10:59:51;3.38;;;1.70;;
19842;SDS011;10082;51.038;6.992;2023-02-27T11:02:21;1.98;;;1.55;;
19842;SDS011;10082;51.038;6.992;2023-02-27T11:04:50;3.38;;;1.35;;
19842;SDS011;10082;51.038;6.992;2023-02-27T11:07:25;2.58;;;1.40;;
19842;SDS011;10082;51.038;6.992;2023-02-27T11:09:58;2.80;;;1.20;;
19842;SDS011;10082;51.038;6.992;2023-02-27T11:12:29;1.40;;;1.20;;
19842;SDS011;10082;51.038;6.992;2023-02-27T11:14:57;1.50;;;1.23;;
19842;SDS011;10082;51.038;6.992;2023-02-27T11:17:26;1.75;;;1.10;;
19842;SDS011;10082;51.038;6.992;2023-02-27T11:19:56;1.67;;;1.30;;
19842;SDS011;10082;51.038;6.992;2023-02-27T11:22:26;1.33;;;1.00;;
19842;SDS011;10082;51.038;6.992;2023-02-27T11:27:46;1.73;;;1.20;;
19842;SDS011;10082;51.038;6.992;2023-02-27T11:30:20;2.00;;;1.13;;
19842;SDS011;10082;51.038;6.992;2023-02-27T11:32:51;1.20;;;1.00;;
19842;SDS011;10082;51.038;6.992;2023-02-27T11:35:22;1.47;;;0.90;;
19842;SDS011;10082;51.038;6.992;2023-02-27T11:37:52;2.77;;;1.43;;
19842;SDS011;10082;51.038;6.992;2023-02-27T11:40:21;2.77;;;1.30;;
19842;SDS011;10082;51.038;6.992;2023-02-27T11:42:55;1.43;;;1.10;;
19842;SDS011;10082;51.038;6.992;2023-02-27T11:45:29;4.70;;;1.23;;
19842;SDS011;10082;51.038;6.992;2023-02-27T11:47:58;1.37;;;1.00;;
19842;SDS011;10082;51.038;6.992;2023-02-27T11:50:36;3.00;;;1.30;;
19842;SDS011;10082;51.038;6.992;2023-02-27T11:53:19;1.80;;;1.17;;
19842;SDS011;10082;51.038;6.992;2023-02-27T11:55:56;1.43;;;1.00;;
19842;SDS011;10082;51.038;6.992;2023-02-27T11:58:29;1.27;;;1.03;;
19842;SDS011;10082;51.038;6.992;2023-02-27T12:01:04;1.63;;;1.20;;
19842;SDS011;10082;51.038;6.992;2023-02-27T12:03:37;2.17;;;1.10;;
19842;SDS011;10082;51.038;6.992;2023-02-27T12:06:14;1.10;;;0.80;;
19842;SDS011;10082;51.038;6.992;2023-02-27T12:08:46;2.10;;;1.40;;
19842;SDS011;10082;51.038;6.992;2023-02-27T12:11:19;1.40;;;0.90;;
19842;SDS011;10082;51.038;6.992;2023-02-27T12:13:55;2.20;;;1.10;;
19842;SDS011;10082;51.038;6.992;2023-02-27T12:16:27;2.20;;;0.90;;
19842;SDS011;10082;51.038;6.992;2023-02-27T12:18:58;2.50;;;0.90;;
19842;SDS011;10082;51.038;6.992;2023-02-27T12:24:35;1.90;;;0.97;;
19842;SDS011;10082;51.038;6.992;2023-02-27T12:27:09;1.30;;;1.10;;
19842;SDS011;10082;51.038;6.992;2023-02-27T12:29:44;1.20;;;0.90;;
19842;SDS011;10082;51.038;6.992;2023-02-27T12:32:17;1.83;;;1.17;;
19842;SDS011;10082;51.038;6.992;2023-02-27T12:34:48;1.70;;;1.20;;
19842;SDS011;10082;51.038;6.992;2023-02-27T12:37:19;1.33;;;0.70;;
19842;SDS011;10082;51.038;6.992;2023-02-27T12:39:50;1.47;;;0.80;;
19842;SDS011;10082;51.038;6.992;2023-02-27T12:42:25;1.43;;;1.03;;
19842;SDS011;10082;51.038;6.992;2023-02-27T12:45:16;2.47;;;1.03;;
19842;SDS011;10082;51.038;6.992;2023-02-27T12:47:57;1.70;;;0.90;;
19842;SDS011;10082;51.038;6.992;2023-02-27T12:50:39;3.20;;;1.20;;
19842;SDS011;10082;51.038;6.992;2023-02-27T12:53:24;0.93;;;0.77;;
19842;SDS011;10082;51.038;6.992;2023-02-27T12:56:08;2.17;;;1.23;;
19842;SDS011;10082;51.038;6.992;2023-02-27T12:58:42;1.60;;;1.10;;
19842;SDS011;10082;51.038;6.992;2023-02-27T13:01:22;1.23;;;1.10;;
19842;SDS011;10082;51.038;6.992;2023-02-27T13:03:59;2.37;;;1.10;;
19842;SDS011;10082;51.038;6.992;2023-02-27T13:06:31;1.80;;;1.00;;
19842;SDS011;10082;51.038;6.992;2023-02-27T13:09:09;1.10;;;0.93;;
19842;SDS011;10082;51.038;6.992;2023-02-27T13:11:45;2.17;;;1.03;;
19842;SDS011;10082;51.038;6.992;2023-02-27T13:14:33;2.80;;;1.30;;
19842;SDS011;10082;51.038;6.992;2023-02-27T13:17:12;1.93;;;1.23;;
19842;SDS011;10082;51.038;6.992;2023-02-27T13:19:46;2.03;;;1.33;;
19842;SDS011;10082;51.038;6.992;2023-02-27T13:22:19;2.08;;;1.08;;
19842;SDS011;10082;51.038;6.992;2023-02-27T13:24:51;1.47;;;1.10;;
19842;SDS011;10082;51.038;6.992;2023-02-27T13:27:23;1.30;;;1.10;;
19842;SDS011;10082;51.038;6.992;2023-02-27T13:30:03;2.17;;;1.10;;
19842;SDS011;10082;51.038;6.992;2023-02-27T13:32:39;1.92;;;1.08;;
19842;SDS011;10082;51.038;6.992;2023-02-27T13:35:17;1.63;;;1.10;;
19842;SDS011;10082;51.038;6.992;2023-02-27T13:37:52;2.03;;;1.30;;
19842;SDS011;10082;51.038;6.992;2023-02-27T13:40:28;1.15;;;0.80;;
19842;SDS011;10082;51.038;6.992;2023-02-27T13:42:58;1.63;;;1.20;;
19842;SDS011;10082;51.038;6.992;2023-02-27T13:48:41;2.45;;;1.30;;
19842;SDS011;10082;51.038;6.992;2023-02-27T13:54:17;1.58;;;1.08;;
19842;SDS011;10082;51.038;6.992;2023-02-27T13:56:47;1.92;;;1.10;;
19842;SDS011;10082;51.038;6.992;2023-02-27T13:59:18;2.03;;;1.10;;
19842;SDS011;10082;51.038;6.992;2023-02-27T14:01:49;2.03;;;1.08;;
19842;SDS011;10082;51.038;6.992;2023-02-27T14:04:20;1.60;;;1.02;;
19842;SDS011;10082;51.038;6.992;2023-02-27T14:06:50;1.98;;;0.95;;
19842;SDS011;10082;51.038;6.992;2023-02-27T14:09:24;1.33;;;0.83;;
19842;SDS011;10082;51.038;6.992;2023-02-27T14:11:56;1.23;;;0.80;;
19842;SDS011;10082;51.038;6.992;2023-02-27T14:14:34;2.20;;;1.00;;
19842;SDS011;10082;51.038;6.992;2023-02-27T14:17:04;1.45;;;0.95;;
19842;SDS011;10082;51.038;6.992;2023-02-27T14:22:28;2.33;;;0.90;;
19842;SDS011;10082;51.038;6.992;2023-02-27T14:24:57;2.75;;;1.05;;
19842;SDS011;10082;51.038;6.992;2023-02-27T14:27:32;2.40;;;0.98;;
19842;SDS011;10082;51.038;6.992;2023-02-27T14:30:17;1.95;;;0.95;;
19842;SDS011;10082;51.038;6.992;2023-02-27T14:32:53;1.55;;;1.02;;
19842;SDS011;10082;51.038;6.992;2023-02-27T14:35:25;1.48;;;0.90;;
19842;SDS011;10082;51.038;6.992;2023-02-27T14:37:53;1.67;;;0.98;;
19842;SDS011;10082;51.038;6.992;2023-02-27T14:40:21;2.05;;;1.20;;
19842;SDS011;10082;51.038;6.992;2023-02-27T14:43:02;1.50;;;1.20;;
19842;SDS011;10082;51.038;6.992;2023-02-27T14:45:36;2.15;;;1.10;;
19842;SDS011;10082;51.038;6.992;2023-02-27T14:48:07;1.33;;;1.08;;
19842;SDS011;10082;51.038;6.992;2023-02-27T14:50:41;2.60;;;1.10;;
19842;SDS011;10082;51.038;6.992;2023-02-27T14:53:28;1.20;;;1.00;;
19842;SDS011;10082;51.038;6.992;2023-02-27T14:55:59;1.43;;;0.90;;
19842;SDS011;10082;51.038;6.992;2023-02-27T14:58:26;2.80;;;1.20;;
19842;SDS011;10082;51.038;6.992;2023-02-27T15:01:04;3.30;;;1.20;;
19842;SDS011;10082;51.038;6.992;2023-02-27T15:03:36;1.47;;;1.10;;
19842;SDS011;10082;51.038;6.992;2023-02-27T15:06:15;1.27;;;1.07;;
19842;SDS011;10082;51.038;6.992;2023-02-27T15:08:46;1.07;;;0.97;;
19842;SDS011;10082;51.038;6.992;2023-02-27T15:11:16;1.53;;;1.00;;
19842;SDS011;10082;51.038;6.992;2023-02-27T15:13:46;2.28;;;1.25;;
19842;SDS011;10082;51.038;6.992;2023-02-27T15:16:34;1.10;;;1.00;;
19842;SDS011;10082;51.038;6.992;2023-02-27T15:21:52;2.37;;;1.10;;
19842;SDS011;10082;51.038;6.992;2023-02-27T15:24:24;1.58;;;0.90;;
19842;SDS011;10082;51.038;6.992;2023-02-27T15:26:55;2.53;;;1.00;;
19842;SDS011;10082;51.038;6.992;2023-02-27T15:29:27;1.35;;;1.13;;
19842;SDS011;10082;51.038;6.992;2023-02-27T15:31:59;2.17;;;1.17;;
19842;SDS011;10082;51.038;6.992;2023-02-27T15:34:29;1.80;;;1.17;;
19842;SDS011;10082;51.038;6.992;2023-02-27T15:37:01;1.70;;;1.20;;
19842;SDS011;10082;51.038;6.992;2023-02-27T15:39:32;2.75;;;1.10;;
19842;SDS011;10082;51.038;6.992;2023-02-27T15:42:02;1.52;;;1.20;;
19842;SDS011;10082;51.038;6.992;2023-02-27T15:44:32;1.50;;;1.10;;
19842;SDS011;10082;51.038;6.992;2023-02-27T15:47:04;1.98;;;1.00;;
19842;SDS011;10082;51.038;6.992;2023-02-27T15:49:33;2.08;;;1.20;;
19842;SDS011;10082;51.038;6.992;2023-02-27T15:52:11;2.03;;;1.25;;
19842;SDS011;10082;51.038;6.992;2023-02-27T15:54:44;2.47;;;1.35;;
19842;SDS011;10082;51.038;6.992;2023-02-27T15:57:13;1.60;;;1.10;;
19842;SDS011;10082;51.038;6.992;2023-02-27T15:59:41;2.15;;;1.33;;
19842;SDS011;10082;51.038;6.992;2023-02-27T16:02:12;1.33;;;1.20;;
19842;SDS011;10082;51.038;6.992;2023-02-27T16:04:44;1.55;;;1.10;;
19842;SDS011;10082;51.038;6.992;2023-02-27T16:07:16;1.65;;;1.10;;
19842;SDS011;10082;51.038;6.992;2023-02-27T16:09:47;3.35;;;1.10;;
19842;SDS011;10082;51.038;6.992;2023-02-27T16:12:21;3.33;;;1.17;;
19842;SDS011;10082;51.038;6.992;2023-02-27T16:15:08;2.75;;;1.38;;
19842;SDS011;10082;51.038;6.992;2023-02-27T16:17:50;2.88;;;1.30;;
19842;SDS011;10082;51.038;6.992;2023-02-27T16:20:35;2.13;;;1.40;;
19842;SDS011;10082;51.038;6.992;2023-02-27T16:23:13;1.83;;;1.20;;
19842;SDS011;10082;51.038;6.992;2023-02-27T16:25:58;2.43;;;1.40;;
19842;SDS011;10082;51.038;6.992;2023-02-27T16:28:30;2.53;;;1.20;;
19842;SDS011;10082;51.038;6.992;2023-02-27T16:30:59;2.30;;;1.00;;
19842;SDS011;10082;51.038;6.992;2023-02-27T16:33:29;3.15;;;1.27;;
19842;SDS011;10082;51.038;6.992;2023-02-27T16:36:04;2.77;;;1.27;;
19842;SDS011;10082;51.038;6.992;2023-02-27T16:38:42;5.07;;;1.43;;
19842;SDS011;10082;51.038;6.992;2023-02-27T16:41:10;2.50;;;1.20;;
19842;SDS011;10082;51.038;6.992;2023-02-27T16:43:40;2.00;;;1.40;;
19842;SDS011;10082;51.038;6.992;2023-02-27T16:46:08;2.63;;;1.33;;
19842;SDS011;10082;51.038;6.992;2023-02-27T16:48:35;2.03;;;1.50;;
19842;SDS011;10082;51.038;6.992;2023-02-27T16:51:02;2.63;;;1.40;;
19842;SDS011;10082;51.038;6.992;2023-02-27T16:53:30;1.60;;;1.33;;
19842;SDS011;10082;51.038;6.992;2023-02-27T16:55:59;2.30;;;1.20;;
19842;SDS011;10082;51.038;6.992;2023-02-27T16:58:26;1.95;;;1.52;;
19842;SDS011;10082;51.038;6.992;2023-02-27T17:00:54;2.93;;;1.70;;
19842;SDS011;10082;51.038;6.992;2023-02-27T17:03:21;4.13;;;1.80;;
19842;SDS011;10082;51.038;6.992;2023-02-27T17:05:48;4.23;;;1.73;;
19842;SDS011;10082;51.038;6.992;2023-02-27T17:08:15;2.47;;;1.50;;
19842;SDS011;10082;51.038;6.992;2023-02-27T17:10:43;3.37;;;1.60;;
19842;SDS011;10082;51.038;6.992;2023-02-27T17:13:12;1.77;;;1.40;;
19842;SDS011;10082;51.038;6.992;2023-02-27T17:15:39;2.43;;;1.50;;
19842;SDS011;10082;51.038;6.992;2023-02-27T17:18:09;2.97;;;1.97;;
19842;SDS011;10082;51.038;6.992;2023-02-27T17:20:37;2.20;;;2.00;;
19842;SDS011;10082;51.038;6.992;2023-02-27T17:23:04;2.83;;;2.30;;
19842;SDS011;10082;51.038;6.992;2023-02-27T17:25:31;3.00;;;2.43;;
19842;SDS011;10082;51.038;6.992;2023-02-27T17:28:05;2.57;;;2.20;;
19842;SDS011;10082;51.038;6.992;2023-02-27T17:30:33;2.77;;;1.83;;
19842;SDS011;10082;51.038;6.992;2023-02-27T17:33:01;3.00;;;2.13;;
19842;SDS011;10082;51.038;6.992;2023-02-27T17:35:29;3.60;;;1.80;;
19842;SDS011;10082;51.038;6.992;2023-02-27T17:38:00;2.87;;;1.60;;
19842;SDS011;10082;51.038;6.992;2023-02-27T17:40:28;3.17;;;1.97;;
19842;SDS011;10082;51.038;6.992;2023-02-27T17:42:56;3.13;;;1.63;;
19842;SDS011;10082;51.038;6.992;2023-02-27T17:45:23;3.08;;;1.90;;
19842;SDS011;10082;51.038;6.992;2023-02-27T17:47:53;3.30;;;1.80;;
19842;SDS011;10082;51.038;6.992;2023-02-27T17:50:21;1.97;;;1.77;;
19842;SDS011;10082;51.038;6.992;2023-02-27T17:52:49;2.97;;;1.90;;
19842;SDS011;10082;51.038;6.992;2023-02-27T17:55:16;2.27;;;2.00;;
19842;SDS011;10082;51.038;6.992;2023-02-27T17:57:44;2.43;;;1.87;;
19842;SDS011;10082;51.038;6.992;2023-02-27T18:00:12;3.13;;;1.90;;
19842;SDS011;10082;51.038;6.992;2023-02-27T18:02:41;4.00;;;2.30;;
19842;SDS011;10082;51.038;6.992;2023-02-27T18:05:11;4.33;;;2.30;;
19842;SDS011;10082;51.038;6.992;2023-02-27T18:07:38;3.77;;;2.30;;
19842;SDS011;10082;51.038;6.992;2023-02-27T18:10:07;3.17;;;2.57;;
19842;SDS011;10082;51.038;6.992;2023-02-27T18:12:39;3.43;;;2.70;;